sensor_id;sensor_type;location;lat;lon;timestamp;P1;durP1;ratioP1;P2;durP2;ratioP2
18612;SDS011;9436;52.152;21.032;2022-09-28T00:00:20;20.63;;;18.53;;
18612;SDS011;9436;52.152;21.032;2022-09-28T00:02:49;18.73;;;16.73;;
18612;SDS011;9436;52.152;21.032;2022-09-28T00:05:16;18.40;;;16.67;;
18612;SDS011;9436;52.152;21.032;2022-09-28T00:07:43;18.27;;;16.47;;
18612;SDS011;9436;52.152;21.032;2022-09-28T00:10:11;17.47;;;15.77;;
18612;SDS011;9436;52.152;21.032;2022-09-28T00:12:38;17.97;;;16.23;;
18612;SDS011;9436;52.152;21.032;2022-09-28T00:15:06;16.00;;;14.50;;
18612;SDS011;9436;52.152;21.032;2022-09-28T00:17:33;16.23;;;14.63;;
18612;SDS011;9436;52.152;21.032;2022-09-28T00:20:02;14.23;;;12.83;;
18612;SDS011;9436;52.152;21.032;2022-09-28T00:22:30;14.20;;;12.80;;
18612;SDS011;9436;52.152;21.032;2022-09-28T00:24:57;13.57;;;12.17;;
18612;SDS011;9436;52.152;21.032;2022-09-28T00:27:24;12.67;;;11.47;;
18612;SDS011;9436;52.152;21.032;2022-09-28T00:29:51;11.43;;;10.33;;
18612;SDS011;9436;52.152;21.032;2022-09-28T00:32:18;9.63;;;8.67;;
18612;SDS011;9436;52.152;21.032;2022-09-28T00:34:48;9.07;;;8.17;;
18612;SDS011;9436;52.152;21.032;2022-09-28T00:37:18;8.30;;;7.50;;
18612;SDS011;9436;52.152;21.032;2022-09-28T00:39:46;8.67;;;7.87;;
18612;SDS011;9436;52.152;21.032;2022-09-28T00:42:15;8.67;;;7.77;;
18612;SDS011;9436;52.152;21.032;2022-09-28T00:44:45;7.37;;;6.60;;
18612;SDS011;9436;52.152;21.032;2022-09-28T00:50:06;5.90;;;5.40;;
18612;SDS011;9436;52.152;21.032;2022-09-28T00:52:39;6.10;;;5.50;;
18612;SDS011;9436;52.152;21.032;2022-09-28T00:55:11;5.10;;;4.60;;
18612;SDS011;9436;52.152;21.032;2022-09-28T00:57:41;5.33;;;4.80;;
18612;SDS011;9436;52.152;21.032;2022-09-28T01:00:11;4.60;;;4.10;;
18612;SDS011;9436;52.152;21.032;2022-09-28T01:02:39;4.50;;;3.93;;
18612;SDS011;9436;52.152;21.032;2022-09-28T01:05:06;4.13;;;3.70;;
18612;SDS011;9436;52.152;21.032;2022-09-28T01:07:35;4.67;;;4.20;;
18612;SDS011;9436;52.152;21.032;2022-09-28T01:10:05;4.30;;;3.90;;
18612;SDS011;9436;52.152;21.032;2022-09-28T01:12:33;4.47;;;4.07;;
18612;SDS011;9436;52.152;21.032;2022-09-28T01:15:00;4.03;;;3.73;;
18612;SDS011;9436;52.152;21.032;2022-09-28T01:17:29;4.43;;;3.77;;
18612;SDS011;9436;52.152;21.032;2022-09-28T01:20:14;4.03;;;3.70;;
18612;SDS011;9436;52.152;21.032;2022-09-28T01:26:35;4.93;;;3.70;;
18612;SDS011;9436;52.152;21.032;2022-09-28T01:32:14;4.30;;;3.63;;
18612;SDS011;9436;52.152;21.032;2022-09-28T01:34:51;3.67;;;3.37;;
18612;SDS011;9436;52.152;21.032;2022-09-28T01:37:24;4.27;;;3.87;;
18612;SDS011;9436;52.152;21.032;2022-09-28T01:39:56;4.00;;;3.70;;
18612;SDS011;9436;52.152;21.032;2022-09-28T01:42:28;4.17;;;3.77;;
18612;SDS011;9436;52.152;21.032;2022-09-28T01:44:59;4.40;;;3.93;;
18612;SDS011;9436;52.152;21.032;2022-09-28T01:47:32;4.50;;;4.10;;
18612;SDS011;9436;52.152;21.032;2022-09-28T01:50:04;4.10;;;3.80;;
18612;SDS011;9436;52.152;21.032;2022-09-28T01:52:36;3.90;;;3.50;;
18612;SDS011;9436;52.152;21.032;2022-09-28T01:55:09;4.03;;;3.70;;
18612;SDS011;9436;52.152;21.032;2022-09-28T01:57:43;3.90;;;3.40;;
18612;SDS011;9436;52.152;21.032;2022-09-28T02:00:16;4.30;;;3.60;;
18612;SDS011;9436;52.152;21.032;2022-09-28T02:02:46;4.80;;;4.03;;
18612;SDS011;9436;52.152;21.032;2022-09-28T02:05:19;3.70;;;3.40;;
18612;SDS011;9436;52.152;21.032;2022-09-28T02:07:49;4.67;;;3.47;;
18612;SDS011;9436;52.152;21.032;2022-09-28T02:10:23;3.40;;;3.10;;
18612;SDS011;9436;52.152;21.032;2022-09-28T02:12:55;3.23;;;2.93;;
18612;SDS011;9436;52.152;21.032;2022-09-28T02:15:28;3.07;;;2.83;;
18612;SDS011;9436;52.152;21.032;2022-09-28T02:17:59;3.50;;;3.20;;
18612;SDS011;9436;52.152;21.032;2022-09-28T02:20:26;4.27;;;3.67;;
18612;SDS011;9436;52.152;21.032;2022-09-28T02:22:57;3.80;;;3.40;;
18612;SDS011;9436;52.152;21.032;2022-09-28T02:25:29;4.27;;;3.60;;
18612;SDS011;9436;52.152;21.032;2022-09-28T02:28:05;4.30;;;3.90;;
18612;SDS011;9436;52.152;21.032;2022-09-28T02:30:35;4.67;;;4.00;;
18612;SDS011;9436;52.152;21.032;2022-09-28T02:33:04;5.03;;;4.53;;
18612;SDS011;9436;52.152;21.032;2022-09-28T02:35:36;4.67;;;4.00;;
18612;SDS011;9436;52.152;21.032;2022-09-28T02:38:04;4.50;;;4.10;;
18612;SDS011;9436;52.152;21.032;2022-09-28T02:40:32;4.87;;;4.37;;
18612;SDS011;9436;52.152;21.032;2022-09-28T02:43:04;4.73;;;4.23;;
18612;SDS011;9436;52.152;21.032;2022-09-28T02:45:43;5.03;;;4.40;;
18612;SDS011;9436;52.152;21.032;2022-09-28T02:48:20;4.73;;;4.33;;
18612;SDS011;9436;52.152;21.032;2022-09-28T02:50:59;5.17;;;4.13;;
18612;SDS011;9436;52.152;21.032;2022-09-28T02:56:28;5.37;;;4.13;;
18612;SDS011;9436;52.152;21.032;2022-09-28T02:59:11;4.70;;;3.93;;
18612;SDS011;9436;52.152;21.032;2022-09-28T03:01:49;4.60;;;4.20;;
18612;SDS011;9436;52.152;21.032;2022-09-28T03:04:26;4.30;;;3.90;;
18612;SDS011;9436;52.152;21.032;2022-09-28T03:06:58;4.83;;;4.17;;
18612;SDS011;9436;52.152;21.032;2022-09-28T03:09:31;5.47;;;4.00;;
18612;SDS011;9436;52.152;21.032;2022-09-28T03:12:05;3.80;;;3.40;;
18612;SDS011;9436;52.152;21.032;2022-09-28T03:14:35;4.13;;;3.63;;
18612;SDS011;9436;52.152;21.032;2022-09-28T03:17:02;3.60;;;3.30;;
18612;SDS011;9436;52.152;21.032;2022-09-28T03:19:31;4.00;;;3.70;;
18612;SDS011;9436;52.152;21.032;2022-09-28T03:22:00;4.07;;;3.70;;
18612;SDS011;9436;52.152;21.032;2022-09-28T03:24:29;4.60;;;3.60;;
18612;SDS011;9436;52.152;21.032;2022-09-28T03:26:56;3.73;;;3.40;;
18612;SDS011;9436;52.152;21.032;2022-09-28T03:29:23;4.20;;;3.83;;
18612;SDS011;9436;52.152;21.032;2022-09-28T03:31:52;4.13;;;3.73;;
18612;SDS011;9436;52.152;21.032;2022-09-28T03:34:19;3.60;;;3.30;;
18612;SDS011;9436;52.152;21.032;2022-09-28T03:36:46;3.83;;;3.23;;
18612;SDS011;9436;52.152;21.032;2022-09-28T03:39:13;4.60;;;4.03;;
18612;SDS011;9436;52.152;21.032;2022-09-28T03:41:40;4.53;;;3.73;;
18612;SDS011;9436;52.152;21.032;2022-09-28T03:44:07;4.77;;;3.87;;
18612;SDS011;9436;52.152;21.032;2022-09-28T03:46:34;3.87;;;3.57;;
18612;SDS011;9436;52.152;21.032;2022-09-28T03:49:02;4.30;;;3.90;;
18612;SDS011;9436;52.152;21.032;2022-09-28T03:51:30;4.40;;;4.00;;
18612;SDS011;9436;52.152;21.032;2022-09-28T03:53:57;5.13;;;4.53;;
18612;SDS011;9436;52.152;21.032;2022-09-28T03:56:24;5.73;;;4.50;;
18612;SDS011;9436;52.152;21.032;2022-09-28T03:58:51;5.10;;;4.23;;
18612;SDS011;9436;52.152;21.032;2022-09-28T04:01:18;4.87;;;4.47;;
18612;SDS011;9436;52.152;21.032;2022-09-28T04:03:45;4.90;;;4.40;;
18612;SDS011;9436;52.152;21.032;2022-09-28T04:06:14;5.73;;;5.13;;
18612;SDS011;9436;52.152;21.032;2022-09-28T04:08:41;7.60;;;6.50;;
18612;SDS011;9436;52.152;21.032;2022-09-28T04:11:08;7.90;;;7.20;;
18612;SDS011;9436;52.152;21.032;2022-09-28T04:13:35;9.07;;;8.17;;
18612;SDS011;9436;52.152;21.032;2022-09-28T04:16:02;8.67;;;7.77;;
18612;SDS011;9436;52.152;21.032;2022-09-28T04:18:30;9.40;;;8.60;;
18612;SDS011;9436;52.152;21.032;2022-09-28T04:20:58;9.83;;;8.97;;
18612;SDS011;9436;52.152;21.032;2022-09-28T04:23:29;10.67;;;9.67;;
18612;SDS011;9436;52.152;21.032;2022-09-28T04:25:56;10.40;;;9.50;;
18612;SDS011;9436;52.152;21.032;2022-09-28T04:28:23;10.37;;;9.37;;
18612;SDS011;9436;52.152;21.032;2022-09-28T04:31:09;11.37;;;10.37;;
18612;SDS011;9436;52.152;21.032;2022-09-28T04:33:37;11.07;;;9.97;;
18612;SDS011;9436;52.152;21.032;2022-09-28T04:36:04;10.67;;;9.63;;
18612;SDS011;9436;52.152;21.032;2022-09-28T04:38:32;11.10;;;10.00;;
18612;SDS011;9436;52.152;21.032;2022-09-28T04:40:59;11.27;;;10.27;;
18612;SDS011;9436;52.152;21.032;2022-09-28T04:43:26;11.60;;;10.43;;
18612;SDS011;9436;52.152;21.032;2022-09-28T04:45:56;11.17;;;10.17;;
18612;SDS011;9436;52.152;21.032;2022-09-28T04:48:24;11.87;;;10.63;;
18612;SDS011;9436;52.152;21.032;2022-09-28T04:50:52;11.17;;;10.17;;
18612;SDS011;9436;52.152;21.032;2022-09-28T04:53:19;11.30;;;10.30;;
18612;SDS011;9436;52.152;21.032;2022-09-28T04:55:55;12.30;;;11.20;;
18612;SDS011;9436;52.152;21.032;2022-09-28T04:58:23;11.37;;;10.37;;
18612;SDS011;9436;52.152;21.032;2022-09-28T05:00:52;11.83;;;10.73;;
18612;SDS011;9436;52.152;21.032;2022-09-28T05:03:22;11.23;;;10.30;;
18612;SDS011;9436;52.152;21.032;2022-09-28T05:05:49;11.00;;;10.07;;
18612;SDS011;9436;52.152;21.032;2022-09-28T05:08:16;10.53;;;9.57;;
18612;SDS011;9436;52.152;21.032;2022-09-28T05:10:43;11.67;;;10.57;;
18612;SDS011;9436;52.152;21.032;2022-09-28T05:13:12;11.50;;;10.50;;
18612;SDS011;9436;52.152;21.032;2022-09-28T05:15:40;10.73;;;9.70;;
18612;SDS011;9436;52.152;21.032;2022-09-28T05:18:07;10.67;;;9.73;;
18612;SDS011;9436;52.152;21.032;2022-09-28T05:20:38;11.63;;;10.60;;
18612;SDS011;9436;52.152;21.032;2022-09-28T05:23:08;11.40;;;10.37;;
18612;SDS011;9436;52.152;21.032;2022-09-28T05:25:36;11.97;;;10.90;;
18612;SDS011;9436;52.152;21.032;2022-09-28T05:28:03;10.93;;;9.93;;
18612;SDS011;9436;52.152;21.032;2022-09-28T05:30:32;10.30;;;9.30;;
18612;SDS011;9436;52.152;21.032;2022-09-28T05:33:00;11.43;;;10.30;;
18612;SDS011;9436;52.152;21.032;2022-09-28T05:35:27;10.83;;;9.83;;
18612;SDS011;9436;52.152;21.032;2022-09-28T05:37:54;8.83;;;7.97;;
18612;SDS011;9436;52.152;21.032;2022-09-28T05:40:22;9.77;;;8.87;;
18612;SDS011;9436;52.152;21.032;2022-09-28T05:42:49;8.60;;;7.80;;
18612;SDS011;9436;52.152;21.032;2022-09-28T05:45:16;9.93;;;9.03;;
18612;SDS011;9436;52.152;21.032;2022-09-28T05:47:45;10.43;;;9.20;;
18612;SDS011;9436;52.152;21.032;2022-09-28T05:50:11;8.60;;;7.80;;
18612;SDS011;9436;52.152;21.032;2022-09-28T05:52:40;8.70;;;7.90;;
18612;SDS011;9436;52.152;21.032;2022-09-28T05:55:08;8.73;;;7.93;;
18612;SDS011;9436;52.152;21.032;2022-09-28T05:57:36;9.17;;;8.20;;
18612;SDS011;9436;52.152;21.032;2022-09-28T06:00:03;9.00;;;8.30;;
18612;SDS011;9436;52.152;21.032;2022-09-28T06:02:32;9.50;;;8.03;;
18612;SDS011;9436;52.152;21.032;2022-09-28T06:05:01;9.43;;;7.70;;
18612;SDS011;9436;52.152;21.032;2022-09-28T06:07:28;8.83;;;7.07;;
18612;SDS011;9436;52.152;21.032;2022-09-28T06:09:55;8.33;;;7.60;;
18612;SDS011;9436;52.152;21.032;2022-09-28T06:12:23;9.13;;;7.47;;
18612;SDS011;9436;52.152;21.032;2022-09-28T06:14:49;8.33;;;7.53;;
18612;SDS011;9436;52.152;21.032;2022-09-28T06:17:16;7.07;;;6.37;;
18612;SDS011;9436;52.152;21.032;2022-09-28T06:19:43;7.70;;;7.00;;
18612;SDS011;9436;52.152;21.032;2022-09-28T06:22:14;8.23;;;7.47;;
18612;SDS011;9436;52.152;21.032;2022-09-28T06:24:41;7.43;;;6.73;;
18612;SDS011;9436;52.152;21.032;2022-09-28T06:27:08;8.17;;;7.47;;
18612;SDS011;9436;52.152;21.032;2022-09-28T06:29:34;8.20;;;7.47;;
18612;SDS011;9436;52.152;21.032;2022-09-28T06:32:01;8.33;;;7.33;;
18612;SDS011;9436;52.152;21.032;2022-09-28T06:34:28;8.87;;;7.37;;
18612;SDS011;9436;52.152;21.032;2022-09-28T06:36:55;8.10;;;7.30;;
18612;SDS011;9436;52.152;21.032;2022-09-28T06:39:24;7.60;;;6.90;;
18612;SDS011;9436;52.152;21.032;2022-09-28T06:41:51;8.53;;;7.50;;
18612;SDS011;9436;52.152;21.032;2022-09-28T06:44:18;7.90;;;7.20;;
18612;SDS011;9436;52.152;21.032;2022-09-28T06:46:45;8.80;;;7.90;;
18612;SDS011;9436;52.152;21.032;2022-09-28T06:49:12;9.13;;;7.87;;
18612;SDS011;9436;52.152;21.032;2022-09-28T06:51:39;8.77;;;8.00;;
18612;SDS011;9436;52.152;21.032;2022-09-28T06:54:06;7.90;;;6.53;;
18612;SDS011;9436;52.152;21.032;2022-09-28T06:56:34;9.17;;;8.07;;
18612;SDS011;9436;52.152;21.032;2022-09-28T06:59:01;8.70;;;7.97;;
18612;SDS011;9436;52.152;21.032;2022-09-28T07:01:29;8.37;;;7.67;;
18612;SDS011;9436;52.152;21.032;2022-09-28T07:03:56;7.90;;;7.30;;
18612;SDS011;9436;52.152;21.032;2022-09-28T07:06:23;7.57;;;6.83;;
18612;SDS011;9436;52.152;21.032;2022-09-28T07:08:50;9.10;;;8.03;;
18612;SDS011;9436;52.152;21.032;2022-09-28T07:11:17;9.13;;;8.33;;
18612;SDS011;9436;52.152;21.032;2022-09-28T07:13:46;8.77;;;7.97;;
18612;SDS011;9436;52.152;21.032;2022-09-28T07:16:13;9.93;;;9.03;;
18612;SDS011;9436;52.152;21.032;2022-09-28T07:18:40;11.27;;;9.57;;
18612;SDS011;9436;52.152;21.032;2022-09-28T07:21:07;10.33;;;9.33;;
18612;SDS011;9436;52.152;21.032;2022-09-28T07:23:34;10.03;;;8.73;;
18612;SDS011;9436;52.152;21.032;2022-09-28T07:26:02;10.70;;;9.80;;
18612;SDS011;9436;52.152;21.032;2022-09-28T07:28:30;10.20;;;9.20;;
18612;SDS011;9436;52.152;21.032;2022-09-28T07:30:59;9.70;;;8.80;;
18612;SDS011;9436;52.152;21.032;2022-09-28T07:33:27;9.93;;;8.93;;
18612;SDS011;9436;52.152;21.032;2022-09-28T07:35:56;9.17;;;8.33;;
18612;SDS011;9436;52.152;21.032;2022-09-28T07:38:24;11.07;;;10.07;;
18612;SDS011;9436;52.152;21.032;2022-09-28T07:40:52;10.47;;;9.43;;
18612;SDS011;9436;52.152;21.032;2022-09-28T07:43:38;9.53;;;8.63;;
18612;SDS011;9436;52.152;21.032;2022-09-28T07:46:07;11.27;;;10.17;;
18612;SDS011;9436;52.152;21.032;2022-09-28T07:48:37;10.77;;;9.77;;
18612;SDS011;9436;52.152;21.032;2022-09-28T07:51:05;11.27;;;10.27;;
18612;SDS011;9436;52.152;21.032;2022-09-28T07:53:33;10.50;;;9.50;;
18612;SDS011;9436;52.152;21.032;2022-09-28T07:56:02;10.00;;;9.17;;
18612;SDS011;9436;52.152;21.032;2022-09-28T07:58:31;10.63;;;9.57;;
18612;SDS011;9436;52.152;21.032;2022-09-28T08:01:01;10.00;;;9.17;;
18612;SDS011;9436;52.152;21.032;2022-09-28T08:03:31;9.60;;;8.60;;
18612;SDS011;9436;52.152;21.032;2022-09-28T08:05:59;8.80;;;7.90;;
18612;SDS011;9436;52.152;21.032;2022-09-28T08:08:27;9.20;;;8.30;;
18612;SDS011;9436;52.152;21.032;2022-09-28T08:10:55;8.77;;;8.00;;
18612;SDS011;9436;52.152;21.032;2022-09-28T08:13:22;9.40;;;8.50;;
18612;SDS011;9436;52.152;21.032;2022-09-28T08:15:51;7.37;;;6.77;;
18612;SDS011;9436;52.152;21.032;2022-09-28T08:18:18;8.10;;;7.30;;
18612;SDS011;9436;52.152;21.032;2022-09-28T08:20:50;8.03;;;7.33;;
18612;SDS011;9436;52.152;21.032;2022-09-28T08:23:34;6.97;;;6.30;;
18612;SDS011;9436;52.152;21.032;2022-09-28T08:26:02;6.67;;;6.07;;
18612;SDS011;9436;52.152;21.032;2022-09-28T08:28:29;6.97;;;6.27;;
18612;SDS011;9436;52.152;21.032;2022-09-28T08:30:57;6.93;;;6.20;;
18612;SDS011;9436;52.152;21.032;2022-09-28T08:33:26;6.60;;;6.00;;
18612;SDS011;9436;52.152;21.032;2022-09-28T08:35:58;7.07;;;6.37;;
18612;SDS011;9436;52.152;21.032;2022-09-28T08:38:26;7.07;;;6.37;;
18612;SDS011;9436;52.152;21.032;2022-09-28T08:41:02;7.60;;;5.90;;
18612;SDS011;9436;52.152;21.032;2022-09-28T08:43:44;7.00;;;6.17;;
18612;SDS011;9436;52.152;21.032;2022-09-28T08:46:28;6.20;;;5.60;;
18612;SDS011;9436;52.152;21.032;2022-09-28T08:49:02;6.50;;;5.83;;
18612;SDS011;9436;52.152;21.032;2022-09-28T08:51:36;6.80;;;6.20;;
18612;SDS011;9436;52.152;21.032;2022-09-28T08:54:11;5.83;;;5.33;;
18612;SDS011;9436;52.152;21.032;2022-09-28T08:56:50;7.30;;;6.60;;
18612;SDS011;9436;52.152;21.032;2022-09-28T08:59:20;6.67;;;6.07;;
18612;SDS011;9436;52.152;21.032;2022-09-28T09:01:52;6.37;;;5.83;;
18612;SDS011;9436;52.152;21.032;2022-09-28T09:04:23;6.87;;;6.10;;
18612;SDS011;9436;52.152;21.032;2022-09-28T09:07:00;6.70;;;6.10;;
18612;SDS011;9436;52.152;21.032;2022-09-28T09:09:42;6.10;;;5.60;;
18612;SDS011;9436;52.152;21.032;2022-09-28T09:12:18;7.70;;;5.70;;
18612;SDS011;9436;52.152;21.032;2022-09-28T09:15:16;5.53;;;4.60;;
18612;SDS011;9436;52.152;21.032;2022-09-28T09:17:59;5.30;;;4.80;;
18612;SDS011;9436;52.152;21.032;2022-09-28T09:20:36;5.73;;;5.17;;
18612;SDS011;9436;52.152;21.032;2022-09-28T09:23:14;5.03;;;4.63;;
18612;SDS011;9436;52.152;21.032;2022-09-28T09:25:47;5.30;;;4.80;;
18612;SDS011;9436;52.152;21.032;2022-09-28T09:28:22;5.00;;;4.57;;
18612;SDS011;9436;52.152;21.032;2022-09-28T09:31:17;4.57;;;4.20;;
18612;SDS011;9436;52.152;21.032;2022-09-28T09:34:00;5.07;;;4.67;;
18612;SDS011;9436;52.152;21.032;2022-09-28T09:36:45;4.97;;;4.40;;
18612;SDS011;9436;52.152;21.032;2022-09-28T09:39:26;4.40;;;4.00;;
18612;SDS011;9436;52.152;21.032;2022-09-28T09:42:07;4.80;;;4.30;;
18612;SDS011;9436;52.152;21.032;2022-09-28T09:47:38;5.03;;;4.03;;
18612;SDS011;9436;52.152;21.032;2022-09-28T09:50:09;3.83;;;3.53;;
18612;SDS011;9436;52.152;21.032;2022-09-28T09:52:44;4.33;;;3.23;;
18612;SDS011;9436;52.152;21.032;2022-09-28T09:55:23;3.57;;;3.17;;
18612;SDS011;9436;52.152;21.032;2022-09-28T09:57:56;3.70;;;3.40;;
18612;SDS011;9436;52.152;21.032;2022-09-28T10:00:28;4.43;;;4.03;;
18612;SDS011;9436;52.152;21.032;2022-09-28T10:02:57;3.73;;;3.30;;
18612;SDS011;9436;52.152;21.032;2022-09-28T10:05:28;3.70;;;3.13;;
18612;SDS011;9436;52.152;21.032;2022-09-28T10:07:59;4.10;;;3.30;;
18612;SDS011;9436;52.152;21.032;2022-09-28T10:10:32;3.57;;;3.20;;
18612;SDS011;9436;52.152;21.032;2022-09-28T10:13:00;3.30;;;3.00;;
18612;SDS011;9436;52.152;21.032;2022-09-28T10:15:29;3.03;;;2.73;;
18612;SDS011;9436;52.152;21.032;2022-09-28T10:17:57;3.93;;;2.90;;
18612;SDS011;9436;52.152;21.032;2022-09-28T10:20:27;3.50;;;3.17;;
18612;SDS011;9436;52.152;21.032;2022-09-28T10:22:57;3.10;;;2.77;;
18612;SDS011;9436;52.152;21.032;2022-09-28T10:25:26;2.90;;;2.50;;
18612;SDS011;9436;52.152;21.032;2022-09-28T10:27:56;3.77;;;2.60;;
18612;SDS011;9436;52.152;21.032;2022-09-28T10:30:25;2.97;;;2.63;;
18612;SDS011;9436;52.152;21.032;2022-09-28T10:32:53;5.37;;;2.50;;
18612;SDS011;9436;52.152;21.032;2022-09-28T10:35:24;3.33;;;2.50;;
18612;SDS011;9436;52.152;21.032;2022-09-28T10:37:53;2.43;;;2.23;;
18612;SDS011;9436;52.152;21.032;2022-09-28T10:40:24;3.47;;;2.60;;
18612;SDS011;9436;52.152;21.032;2022-09-28T10:43:04;2.60;;;2.40;;
18612;SDS011;9436;52.152;21.032;2022-09-28T10:45:39;2.73;;;2.40;;
18612;SDS011;9436;52.152;21.032;2022-09-28T10:48:12;3.13;;;2.47;;
18612;SDS011;9436;52.152;21.032;2022-09-28T10:50:43;2.53;;;2.30;;
18612;SDS011;9436;52.152;21.032;2022-09-28T10:53:24;3.80;;;2.43;;
18612;SDS011;9436;52.152;21.032;2022-09-28T10:55:58;2.97;;;2.10;;
18612;SDS011;9436;52.152;21.032;2022-09-28T10:58:30;3.50;;;2.37;;
18612;SDS011;9436;52.152;21.032;2022-09-28T11:01:04;4.10;;;2.47;;
18612;SDS011;9436;52.152;21.032;2022-09-28T11:03:37;3.33;;;2.03;;
18612;SDS011;9436;52.152;21.032;2022-09-28T11:06:21;4.00;;;2.17;;
18612;SDS011;9436;52.152;21.032;2022-09-28T11:08:51;3.37;;;1.80;;
18612;SDS011;9436;52.152;21.032;2022-09-28T11:11:19;2.57;;;1.80;;
18612;SDS011;9436;52.152;21.032;2022-09-28T11:13:50;2.13;;;1.93;;
18612;SDS011;9436;52.152;21.032;2022-09-28T11:16:19;2.33;;;1.80;;
18612;SDS011;9436;52.152;21.032;2022-09-28T11:18:48;2.93;;;2.10;;
18612;SDS011;9436;52.152;21.032;2022-09-28T11:21:16;3.63;;;1.90;;
18612;SDS011;9436;52.152;21.032;2022-09-28T11:26:33;2.40;;;1.80;;
18612;SDS011;9436;52.152;21.032;2022-09-28T11:29:05;2.80;;;2.00;;
18612;SDS011;9436;52.152;21.032;2022-09-28T11:31:42;3.33;;;1.80;;
18612;SDS011;9436;52.152;21.032;2022-09-28T11:34:12;2.33;;;1.60;;
18612;SDS011;9436;52.152;21.032;2022-09-28T11:36:55;1.87;;;1.60;;
18612;SDS011;9436;52.152;21.032;2022-09-28T11:39:30;2.03;;;1.60;;
18612;SDS011;9436;52.152;21.032;2022-09-28T11:42:15;1.80;;;1.60;;
18612;SDS011;9436;52.152;21.032;2022-09-28T11:44:53;1.87;;;1.57;;
18612;SDS011;9436;52.152;21.032;2022-09-28T11:47:35;2.67;;;1.83;;
18612;SDS011;9436;52.152;21.032;2022-09-28T11:50:19;2.10;;;1.50;;
18612;SDS011;9436;52.152;21.032;2022-09-28T11:52:55;2.90;;;1.67;;
18612;SDS011;9436;52.152;21.032;2022-09-28T11:55:31;3.90;;;2.10;;
18612;SDS011;9436;52.152;21.032;2022-09-28T11:58:02;4.17;;;1.80;;
18612;SDS011;9436;52.152;21.032;2022-09-28T12:00:38;2.80;;;1.87;;
18612;SDS011;9436;52.152;21.032;2022-09-28T12:03:10;2.83;;;2.07;;
18612;SDS011;9436;52.152;21.032;2022-09-28T12:05:42;2.17;;;1.80;;
18612;SDS011;9436;52.152;21.032;2022-09-28T12:08:15;2.17;;;1.77;;
18612;SDS011;9436;52.152;21.032;2022-09-28T12:10:50;4.40;;;1.70;;
18612;SDS011;9436;52.152;21.032;2022-09-28T12:13:24;2.33;;;1.90;;
18612;SDS011;9436;52.152;21.032;2022-09-28T12:15:56;1.83;;;1.73;;
18612;SDS011;9436;52.152;21.032;2022-09-28T12:18:26;3.50;;;2.10;;
18612;SDS011;9436;52.152;21.032;2022-09-28T12:21:02;4.27;;;2.13;;
18612;SDS011;9436;52.152;21.032;2022-09-28T12:23:36;2.87;;;1.97;;
18612;SDS011;9436;52.152;21.032;2022-09-28T12:26:09;2.30;;;2.10;;
18612;SDS011;9436;52.152;21.032;2022-09-28T12:28:47;1.83;;;1.60;;
18612;SDS011;9436;52.152;21.032;2022-09-28T12:31:18;2.03;;;1.87;;
18612;SDS011;9436;52.152;21.032;2022-09-28T12:33:49;2.30;;;2.10;;
18612;SDS011;9436;52.152;21.032;2022-09-28T12:36:21;2.23;;;2.07;;
18612;SDS011;9436;52.152;21.032;2022-09-28T12:39:09;3.50;;;2.57;;
18612;SDS011;9436;52.152;21.032;2022-09-28T12:41:51;2.33;;;2.10;;
18612;SDS011;9436;52.152;21.032;2022-09-28T12:44:39;2.20;;;2.00;;
18612;SDS011;9436;52.152;21.032;2022-09-28T12:47:39;2.53;;;2.00;;
18612;SDS011;9436;52.152;21.032;2022-09-28T12:57:20;2.13;;;2.00;;
18612;SDS011;9436;52.152;21.032;2022-09-28T12:59:57;1.73;;;1.63;;
18612;SDS011;9436;52.152;21.032;2022-09-28T13:02:49;2.90;;;1.70;;
18612;SDS011;9436;52.152;21.032;2022-09-28T13:05:57;2.20;;;1.97;;
18612;SDS011;9436;52.152;21.032;2022-09-28T13:08:49;2.10;;;1.67;;
18612;SDS011;9436;52.152;21.032;2022-09-28T13:11:28;5.23;;;2.00;;
18612;SDS011;9436;52.152;21.032;2022-09-28T13:14:02;3.17;;;2.00;;
18612;SDS011;9436;52.152;21.032;2022-09-28T13:16:41;2.80;;;2.17;;
18612;SDS011;9436;52.152;21.032;2022-09-28T13:19:15;2.27;;;2.00;;
18612;SDS011;9436;52.152;21.032;2022-09-28T13:21:50;2.47;;;2.13;;
18612;SDS011;9436;52.152;21.032;2022-09-28T13:24:25;1.87;;;1.77;;
18612;SDS011;9436;52.152;21.032;2022-09-28T13:26:57;2.50;;;1.90;;
18612;SDS011;9436;52.152;21.032;2022-09-28T13:29:28;2.63;;;1.80;;
18612;SDS011;9436;52.152;21.032;2022-09-28T13:31:56;2.17;;;1.53;;
18612;SDS011;9436;52.152;21.032;2022-09-28T13:34:26;3.57;;;1.83;;
18612;SDS011;9436;52.152;21.032;2022-09-28T13:37:09;1.83;;;1.33;;
18612;SDS011;9436;52.152;21.032;2022-09-28T13:39:46;1.80;;;1.70;;
18612;SDS011;9436;52.152;21.032;2022-09-28T13:42:20;2.70;;;1.60;;
18612;SDS011;9436;52.152;21.032;2022-09-28T13:45:02;1.90;;;1.70;;
18612;SDS011;9436;52.152;21.032;2022-09-28T13:47:54;3.07;;;1.93;;
18612;SDS011;9436;52.152;21.032;2022-09-28T13:50:31;5.50;;;2.20;;
18612;SDS011;9436;52.152;21.032;2022-09-28T13:53:10;2.60;;;1.80;;
18612;SDS011;9436;52.152;21.032;2022-09-28T13:55:49;1.83;;;1.60;;
18612;SDS011;9436;52.152;21.032;2022-09-28T13:58:22;3.17;;;1.80;;
18612;SDS011;9436;52.152;21.032;2022-09-28T14:00:52;1.63;;;1.53;;
18612;SDS011;9436;52.152;21.032;2022-09-28T14:03:25;2.13;;;1.90;;
18612;SDS011;9436;52.152;21.032;2022-09-28T14:06:21;2.83;;;1.80;;
18612;SDS011;9436;52.152;21.032;2022-09-28T14:12:25;3.73;;;1.90;;
18612;SDS011;9436;52.152;21.032;2022-09-28T14:18:16;2.90;;;1.90;;
18612;SDS011;9436;52.152;21.032;2022-09-28T14:24:20;2.43;;;1.83;;
18612;SDS011;9436;52.152;21.032;2022-09-28T14:27:19;2.20;;;1.73;;
18612;SDS011;9436;52.152;21.032;2022-09-28T14:30:06;4.17;;;2.17;;
18612;SDS011;9436;52.152;21.032;2022-09-28T14:32:46;5.40;;;1.97;;
18612;SDS011;9436;52.152;21.032;2022-09-28T14:35:22;3.77;;;2.10;;
18612;SDS011;9436;52.152;21.032;2022-09-28T14:37:54;2.97;;;1.87;;
18612;SDS011;9436;52.152;21.032;2022-09-28T14:40:57;3.60;;;2.13;;
18612;SDS011;9436;52.152;21.032;2022-09-28T14:43:35;3.70;;;1.90;;
18612;SDS011;9436;52.152;21.032;2022-09-28T14:46:26;2.47;;;2.27;;
18612;SDS011;9436;52.152;21.032;2022-09-28T14:49:01;2.00;;;1.90;;
18612;SDS011;9436;52.152;21.032;2022-09-28T14:51:42;3.20;;;2.00;;
18612;SDS011;9436;52.152;21.032;2022-09-28T14:54:27;3.63;;;2.10;;
18612;SDS011;9436;52.152;21.032;2022-09-28T14:57:19;2.07;;;1.60;;
18612;SDS011;9436;52.152;21.032;2022-09-28T14:59:47;2.13;;;1.93;;
18612;SDS011;9436;52.152;21.032;2022-09-28T15:02:19;2.13;;;1.93;;
18612;SDS011;9436;52.152;21.032;2022-09-28T15:04:54;2.67;;;1.97;;
18612;SDS011;9436;52.152;21.032;2022-09-28T15:07:26;3.00;;;1.80;;
18612;SDS011;9436;52.152;21.032;2022-09-28T15:09:57;3.20;;;2.17;;
18612;SDS011;9436;52.152;21.032;2022-09-28T15:12:27;3.80;;;1.97;;
18612;SDS011;9436;52.152;21.032;2022-09-28T15:14:56;3.17;;;2.10;;
18612;SDS011;9436;52.152;21.032;2022-09-28T15:17:27;4.67;;;2.80;;
18612;SDS011;9436;52.152;21.032;2022-09-28T15:20:08;2.43;;;2.10;;
18612;SDS011;9436;52.152;21.032;2022-09-28T15:22:48;3.13;;;2.13;;
18612;SDS011;9436;52.152;21.032;2022-09-28T15:25:18;2.57;;;2.37;;
18612;SDS011;9436;52.152;21.032;2022-09-28T15:27:51;2.60;;;2.40;;
18612;SDS011;9436;52.152;21.032;2022-09-28T15:30:23;2.70;;;2.43;;
18612;SDS011;9436;52.152;21.032;2022-09-28T15:32:52;2.67;;;2.43;;
18612;SDS011;9436;52.152;21.032;2022-09-28T15:35:21;4.37;;;2.27;;
18612;SDS011;9436;52.152;21.032;2022-09-28T15:37:49;2.50;;;2.30;;
18612;SDS011;9436;52.152;21.032;2022-09-28T15:40:17;3.97;;;2.47;;
18612;SDS011;9436;52.152;21.032;2022-09-28T15:42:54;3.10;;;2.40;;
18612;SDS011;9436;52.152;21.032;2022-09-28T15:45:23;3.67;;;2.40;;
18612;SDS011;9436;52.152;21.032;2022-09-28T15:47:53;3.77;;;2.43;;